createdAt,value
2022-10-01T00:00:55.202Z,7.10
2022-10-01T00:03:24.135Z,6.80
2022-10-01T00:06:11.510Z,6.73
2022-10-01T00:08:40.318Z,6.07
2022-10-01T00:11:21.683Z,7.88
2022-10-01T00:13:48.761Z,9.23
2022-10-01T00:16:19.298Z,7.15
2022-10-01T00:18:47.236Z,7.22
2022-10-01T00:21:19.596Z,6.95
2022-10-01T00:23:46.369Z,7.95
2022-10-01T00:26:21.199Z,6.95
2022-10-01T00:28:53.370Z,7.78
2022-10-01T00:31:20.017Z,7.20
2022-10-01T00:33:47.514Z,6.97
2022-10-01T00:36:14.456Z,6.50
2022-10-01T00:38:41.540Z,5.80
2022-10-01T00:41:09.383Z,6.30
2022-10-01T00:43:40.063Z,6.25
2022-10-01T00:46:15.719Z,6.85
2022-10-01T00:48:58.137Z,6.68
2022-10-01T00:51:37.067Z,6.50
2022-10-01T00:54:14.749Z,7.30
2022-10-01T00:56:43.269Z,5.78
2022-10-01T00:59:11.139Z,6.82
2022-10-01T01:01:38.859Z,6.53
2022-10-01T01:04:16.550Z,5.63
2022-10-01T01:06:53.716Z,5.85
2022-10-01T01:09:21.621Z,5.18
2022-10-01T01:11:51.438Z,5.85
2022-10-01T01:17:10.843Z,5.10
2022-10-01T01:19:54.552Z,4.35
2022-10-01T01:22:25.158Z,4.40
2022-10-01T01:24:59.610Z,4.53
2022-10-01T01:27:40.992Z,4.35
2022-10-01T01:30:11.761Z,5.72
2022-10-01T01:32:55.249Z,4.18
2022-10-01T01:35:34.014Z,4.00
2022-10-01T01:38:10.290Z,4.53
2022-10-01T01:40:40.941Z,4.97
2022-10-01T01:43:14.109Z,4.18
2022-10-01T01:45:42.391Z,3.88
2022-10-01T01:48:11.434Z,5.30
2022-10-01T01:50:44.495Z,4.53
2022-10-01T01:53:11.313Z,3.75
2022-10-01T01:55:38.896Z,3.08
2022-10-01T01:58:05.500Z,4.88
2022-10-01T02:00:32.086Z,4.15
2022-10-01T02:02:59.114Z,3.63
2022-10-01T02:05:35.122Z,4.18
2022-10-01T02:08:24.183Z,4.38
2022-10-01T02:10:59.136Z,3.38
2022-10-01T02:14:00.022Z,4.25
2022-10-01T02:16:47.938Z,4.30
2022-10-01T02:19:35.993Z,3.88
2022-10-01T02:22:06.278Z,3.92
2022-10-01T02:24:48.268Z,3.67
2022-10-01T02:27:47.716Z,4.07
2022-10-01T02:30:15.323Z,4.03
2022-10-01T02:32:45.360Z,3.60
2022-10-01T02:35:16.609Z,3.03
2022-10-01T02:37:45.802Z,3.58
2022-10-01T02:40:16.824Z,4.25
2022-10-01T02:42:52.567Z,3.55
2022-10-01T02:45:23.724Z,3.42
2022-10-01T02:47:59.528Z,3.53
2022-10-01T02:50:32.326Z,3.40
2022-10-01T02:53:10.857Z,3.08
2022-10-01T02:55:40.260Z,3.70
2022-10-01T02:58:07.711Z,2.90
2022-10-01T03:00:34.779Z,3.08
2022-10-01T03:03:01.329Z,2.97
2022-10-01T03:05:28.013Z,2.97
2022-10-01T03:07:54.609Z,3.15
2022-10-01T03:10:21.165Z,2.83
2022-10-01T03:12:47.752Z,3.20
2022-10-01T03:15:16.195Z,2.70
2022-10-01T03:17:43.001Z,2.85
2022-10-01T03:20:10.555Z,2.78
2022-10-01T03:22:37.115Z,2.78
2022-10-01T03:25:04.439Z,2.35
2022-10-01T03:27:31.231Z,2.70
2022-10-01T03:29:57.924Z,2.50
2022-10-01T03:32:24.482Z,2.72
2022-10-01T03:34:51.086Z,2.53
2022-10-01T03:37:17.583Z,2.88
2022-10-01T03:39:44.153Z,2.65
2022-10-01T03:42:10.752Z,2.80
2022-10-01T03:44:37.384Z,2.72
2022-10-01T03:47:04.038Z,2.28
2022-10-01T03:49:30.551Z,2.72
2022-10-01T03:51:57.096Z,2.13
2022-10-01T03:54:23.657Z,2.17
2022-10-01T03:56:50.443Z,2.30
2022-10-01T03:59:16.956Z,2.13
2022-10-01T04:01:43.743Z,1.80
2022-10-01T04:04:10.383Z,2.15
2022-10-01T04:06:36.939Z,1.70
2022-10-01T04:09:03.852Z,2.00
2022-10-01T04:11:30.401Z,1.98
2022-10-01T04:14:00.152Z,2.05
2022-10-01T04:16:26.809Z,2.10
2022-10-01T04:18:53.757Z,2.63
2022-10-01T04:21:20.509Z,2.40
2022-10-01T04:23:47.239Z,1.85
2022-10-01T04:26:13.761Z,1.75
2022-10-01T04:28:40.301Z,2.30
2022-10-01T04:31:25.590Z,2.75
2022-10-01T04:33:54.794Z,2.47
2022-10-01T04:36:22.141Z,2.20
2022-10-01T04:38:51.837Z,2.78
2022-10-01T04:41:18.926Z,3.30
2022-10-01T04:43:45.683Z,2.55
2022-10-01T04:46:12.275Z,3.05
2022-10-01T04:48:38.839Z,2.45
2022-10-01T04:51:05.486Z,6.18
2022-10-01T04:53:32.288Z,2.97
2022-10-01T04:55:58.841Z,4.70
2022-10-01T04:58:25.477Z,3.50
2022-10-01T05:00:52.112Z,2.75
2022-10-01T05:03:18.817Z,4.07
2022-10-01T05:05:45.438Z,4.40
2022-10-01T05:08:12.238Z,4.10
2022-10-01T05:10:39.077Z,5.03
2022-10-01T05:13:05.682Z,3.92
2022-10-01T05:15:33.010Z,5.78
2022-10-01T05:17:59.479Z,4.15
2022-10-01T05:20:27.760Z,4.70
2022-10-01T05:22:56.360Z,6.40
2022-10-01T05:25:23.664Z,5.43
2022-10-01T05:27:50.560Z,5.35
2022-10-01T05:30:24.175Z,8.65
2022-10-01T05:32:56.406Z,4.60
2022-10-01T05:35:23.703Z,5.10
2022-10-01T05:37:54.857Z,4.47
2022-10-01T05:40:21.622Z,3.90
2022-10-01T05:42:48.200Z,3.17
2022-10-01T05:45:14.812Z,3.45
2022-10-01T05:47:42.566Z,3.85
2022-10-01T05:50:09.486Z,3.70
2022-10-01T05:52:36.074Z,3.72
2022-10-01T05:55:02.760Z,3.88
2022-10-01T05:57:29.823Z,3.75
2022-10-01T05:59:57.299Z,3.50
2022-10-01T06:02:23.930Z,3.22
2022-10-01T06:04:50.557Z,2.88
2022-10-01T06:07:17.185Z,2.53
2022-10-01T06:09:44.877Z,3.20
2022-10-01T06:12:11.473Z,2.45
2022-10-01T06:14:38.899Z,2.10
2022-10-01T06:17:05.569Z,3.10
2022-10-01T06:19:32.157Z,2.50
2022-10-01T06:21:58.744Z,2.00
2022-10-01T06:24:26.238Z,2.40
2022-10-01T06:26:53.010Z,3.05
2022-10-01T06:29:19.657Z,2.58
2022-10-01T06:31:46.232Z,2.92
2022-10-01T06:34:12.792Z,3.33
2022-10-01T06:36:39.365Z,3.45
2022-10-01T06:39:05.891Z,4.00
2022-10-01T06:41:34.608Z,4.03
2022-10-01T06:44:01.937Z,4.75
2022-10-01T06:46:28.865Z,4.22
2022-10-01T06:48:55.402Z,4.45
2022-10-01T06:51:41.881Z,4.28
2022-10-01T06:54:08.531Z,3.60
2022-10-01T06:56:35.600Z,4.18
2022-10-01T06:59:03.648Z,3.47
2022-10-01T07:01:32.786Z,3.70
2022-10-01T07:03:59.694Z,3.70
2022-10-01T07:06:26.266Z,3.03
2022-10-01T07:08:52.860Z,3.58
2022-10-01T07:11:20.154Z,3.40
2022-10-01T07:13:49.066Z,3.17
2022-10-01T07:16:19.077Z,4.60
2022-10-01T07:18:45.582Z,2.78
2022-10-01T07:21:12.191Z,2.88
2022-10-01T07:23:38.814Z,2.33
2022-10-01T07:26:08.637Z,2.83
2022-10-01T07:31:12.266Z,1.92
2022-10-01T07:33:39.758Z,2.17
2022-10-01T07:36:08.532Z,2.53
2022-10-01T07:38:35.576Z,2.47
2022-10-01T07:41:03.473Z,2.58
2022-10-01T07:43:31.808Z,2.28
2022-10-01T07:46:00.195Z,2.47
2022-10-01T07:48:27.578Z,2.22
2022-10-01T07:50:54.123Z,1.90
2022-10-01T07:53:20.754Z,1.77
2022-10-01T07:55:47.440Z,1.88
2022-10-01T07:58:14.262Z,2.13
2022-10-01T08:00:40.874Z,2.78
2022-10-01T08:03:07.540Z,1.98
2022-10-01T08:05:36.044Z,1.45
2022-10-01T08:08:05.950Z,2.10
2022-10-01T08:13:14.269Z,2.47
2022-10-01T08:15:45.637Z,2.77
2022-10-01T08:18:12.440Z,2.90
2022-10-01T08:20:39.904Z,1.55
2022-10-01T08:23:10.395Z,2.22
2022-10-01T08:25:37.379Z,2.90
2022-10-01T08:28:04.968Z,4.68
2022-10-01T08:30:31.593Z,1.95
2022-10-01T08:33:00.417Z,2.67
2022-10-01T08:35:28.271Z,1.88
2022-10-01T08:37:57.631Z,2.33
2022-10-01T08:40:24.684Z,1.83
2022-10-01T08:42:56.148Z,2.60
2022-10-01T08:45:28.430Z,2.38
2022-10-01T08:48:05.683Z,2.83
2022-10-01T08:50:53.165Z,2.67
2022-10-01T08:53:45.253Z,4.75
2022-10-01T08:56:36.774Z,2.17
2022-10-01T08:59:35.291Z,5.72
2022-10-01T09:02:02.058Z,2.80
2022-10-01T09:04:29.265Z,1.92
2022-10-01T09:07:13.970Z,2.03
2022-10-01T09:10:07.197Z,2.30
2022-10-01T09:12:53.799Z,1.85
2022-10-01T09:15:30.129Z,1.50
2022-10-01T09:18:22.319Z,1.27
2022-10-01T09:20:57.450Z,1.00
2022-10-01T09:23:30.273Z,1.52
2022-10-01T09:25:59.907Z,0.73
2022-10-01T09:28:35.117Z,1.50
2022-10-01T09:31:17.060Z,0.93
2022-10-01T09:33:58.080Z,1.33
2022-10-01T09:36:38.976Z,1.70
2022-10-01T09:39:24.925Z,0.47
2022-10-01T09:41:52.086Z,1.27
2022-10-01T09:44:26.588Z,1.17
2022-10-01T09:46:55.265Z,0.73
2022-10-01T09:49:31.588Z,0.50
2022-10-01T09:52:10.469Z,0.95
2022-10-01T09:54:47.147Z,0.50
2022-10-01T09:57:35.869Z,0.73
2022-10-01T10:00:17.360Z,0.57
2022-10-01T10:02:49.245Z,0.20
2022-10-01T10:05:20.512Z,0.28
2022-10-01T10:07:51.903Z,0.40
2022-10-01T10:10:25.582Z,0.40
2022-10-01T10:13:10.903Z,0.55
2022-10-01T10:15:50.552Z,0.82
2022-10-01T10:18:24.102Z,0.40
2022-10-01T10:20:53.934Z,0.55
2022-10-01T10:26:03.067Z,0.60
2022-10-01T10:28:43.661Z,0.50
2022-10-01T10:31:19.060Z,0.20
2022-10-01T10:34:08.630Z,0.80
2022-10-01T10:36:37.926Z,0.28
2022-10-01T10:39:07.178Z,0.75
2022-10-01T10:41:34.919Z,0.60
2022-10-01T10:44:07.623Z,0.75
2022-10-01T10:46:37.893Z,0.38
2022-10-01T10:49:18.387Z,0.20
2022-10-01T10:54:20.021Z,0.40
2022-10-01T10:57:15.660Z,0.20
2022-10-01T10:59:42.265Z,0.40
2022-10-01T11:02:21.189Z,0.30
2022-10-01T11:04:49.218Z,0.20
2022-10-01T11:07:21.085Z,0.30
2022-10-01T11:09:58.170Z,0.30
2022-10-01T11:12:56.519Z,0.47
2022-10-01T11:15:41.934Z,0.15
2022-10-01T11:18:50.673Z,0.50
2022-10-01T11:21:38.882Z,0.10
2022-10-01T11:24:53.404Z,0.60
2022-10-01T11:27:43.000Z,0.75
2022-10-01T11:30:42.166Z,0.40
2022-10-01T11:33:40.372Z,0.10
2022-10-01T11:36:53.244Z,0.10
2022-10-01T11:39:24.621Z,0.10
2022-10-01T11:42:06.470Z,0.20
2022-10-01T11:44:42.200Z,0.10
2022-10-01T11:47:13.727Z,0.10
2022-10-01T11:49:44.557Z,0.00
2022-10-01T11:52:18.140Z,0.25
2022-10-01T11:55:21.630Z,0.10
2022-10-01T11:58:13.935Z,0.10
2022-10-01T12:00:43.954Z,0.00
2022-10-01T12:03:18.783Z,0.10
2022-10-01T12:05:46.041Z,0.90
2022-10-01T12:08:24.213Z,0.00
2022-10-01T12:10:54.919Z,0.10
2022-10-01T12:13:32.696Z,0.03
2022-10-01T12:16:15.952Z,0.10
2022-10-01T12:18:49.035Z,0.25
2022-10-01T12:21:43.829Z,1.80
2022-10-01T12:24:16.555Z,0.20
2022-10-01T12:27:02.309Z,1.20
2022-10-01T12:29:58.009Z,1.33
2022-10-01T12:32:40.953Z,2.55
2022-10-01T12:35:11.091Z,1.17
2022-10-01T12:37:55.849Z,1.98
2022-10-01T12:40:32.284Z,4.90
2022-10-01T12:43:17.548Z,2.13
2022-10-01T12:46:06.679Z,2.08
2022-10-01T12:48:51.605Z,1.98
2022-10-01T12:51:36.413Z,1.65
2022-10-01T12:54:13.387Z,0.57
2022-10-01T12:56:52.464Z,0.50
2022-10-01T12:59:57.548Z,0.47
2022-10-01T13:02:43.374Z,0.80
2022-10-01T13:05:24.848Z,0.43
2022-10-01T13:08:18.149Z,0.65
2022-10-01T13:11:03.472Z,0.80
2022-10-01T13:13:34.692Z,0.40
2022-10-01T13:16:13.539Z,0.20
2022-10-01T13:18:43.104Z,0.47
2022-10-01T13:21:25.727Z,0.68
2022-10-01T13:24:01.053Z,0.95
2022-10-01T13:26:45.821Z,0.50
2022-10-01T13:29:15.339Z,0.50
2022-10-01T13:31:57.353Z,0.88
2022-10-01T13:34:37.434Z,0.10
2022-10-01T13:37:16.356Z,0.28
2022-10-01T13:39:44.575Z,0.60
2022-10-01T13:42:23.241Z,0.15
2022-10-01T13:44:55.622Z,0.10
2022-10-01T13:47:23.622Z,0.20
2022-10-01T13:50:05.286Z,0.63
2022-10-01T13:52:32.922Z,0.85
2022-10-01T13:55:01.141Z,1.00
2022-10-01T13:57:38.685Z,0.40
2022-10-01T14:00:17.139Z,0.60
2022-10-01T14:02:59.012Z,0.15
2022-10-01T14:05:43.027Z,0.20
2022-10-01T14:08:34.460Z,0.22
2022-10-01T14:11:36.675Z,0.28
2022-10-01T14:14:43.003Z,0.20
2022-10-01T14:17:13.373Z,0.73
2022-10-01T14:19:47.331Z,1.10
2022-10-01T14:22:21.270Z,0.45
2022-10-01T14:25:29.495Z,0.50
2022-10-01T14:28:01.461Z,0.80
2022-10-01T14:30:50.187Z,0.30
2022-10-01T14:33:28.695Z,0.60
2022-10-01T14:36:26.097Z,0.20
2022-10-01T14:39:20.243Z,0.57
2022-10-01T14:41:49.472Z,0.28
2022-10-01T14:44:37.732Z,0.55
2022-10-01T14:47:24.913Z,0.98
2022-10-01T14:49:54.248Z,1.00
2022-10-01T14:54:58.419Z,1.60
2022-10-01T14:57:29.221Z,1.42
2022-10-01T14:59:59.391Z,0.70
2022-10-01T15:02:30.035Z,0.60
2022-10-01T15:04:57.940Z,0.50
2022-10-01T15:07:32.136Z,1.10
2022-10-01T15:10:07.159Z,0.90
2022-10-01T15:12:41.109Z,1.40
2022-10-01T15:15:24.899Z,0.50
2022-10-01T15:17:52.333Z,0.30
2022-10-01T15:20:19.148Z,1.58
2022-10-01T15:22:49.360Z,0.80
2022-10-01T15:25:22.273Z,0.60
2022-10-01T15:27:49.865Z,3.13
2022-10-01T15:30:18.373Z,2.58
2022-10-01T15:32:48.727Z,1.80
2022-10-01T15:35:19.698Z,2.53
2022-10-01T15:37:50.239Z,4.10
2022-10-01T15:40:27.029Z,3.00
2022-10-01T15:43:15.765Z,3.47
2022-10-01T15:45:42.430Z,3.50
2022-10-01T15:48:28.429Z,3.00
2022-10-01T15:51:14.474Z,0.77
2022-10-01T15:53:41.183Z,0.60
2022-10-01T15:56:12.149Z,0.20
2022-10-01T15:58:47.317Z,1.35
2022-10-01T16:01:22.175Z,0.60
2022-10-01T16:04:09.312Z,0.85
2022-10-01T16:06:36.295Z,1.48
2022-10-01T16:09:23.840Z,2.10
2022-10-01T16:12:06.634Z,1.70
2022-10-01T16:14:36.695Z,1.15
2022-10-01T16:17:18.308Z,1.95
2022-10-01T16:19:50.339Z,1.27
2022-10-01T16:22:34.631Z,0.70
2022-10-01T16:25:26.171Z,0.93
2022-10-01T16:28:04.184Z,1.23
2022-10-01T16:30:32.899Z,1.55
2022-10-01T16:33:04.519Z,1.60
2022-10-01T16:35:33.033Z,2.47
2022-10-01T16:37:59.621Z,1.13
2022-10-01T16:40:38.935Z,1.50
2022-10-01T16:43:10.009Z,2.80
2022-10-01T16:45:38.731Z,1.88
2022-10-01T16:48:14.330Z,0.90
2022-10-01T16:50:42.175Z,1.15
2022-10-01T16:53:15.139Z,1.85
2022-10-01T16:55:42.780Z,1.65
2022-10-01T16:58:09.952Z,1.90
2022-10-01T17:00:37.273Z,1.75
2022-10-01T17:03:06.600Z,2.10
2022-10-01T17:05:36.036Z,1.15
2022-10-01T17:08:11.346Z,0.57
2022-10-01T17:10:47.593Z,1.40
2022-10-01T17:13:15.388Z,1.05
2022-10-01T17:15:42.229Z,0.73
2022-10-01T17:18:13.738Z,2.90
2022-10-01T17:20:40.366Z,0.80
2022-10-01T17:23:07.523Z,0.68
2022-10-01T17:25:38.036Z,0.50
2022-10-01T17:28:08.380Z,1.50
2022-10-01T17:30:35.418Z,1.38
2022-10-01T17:33:02.009Z,1.92
2022-10-01T17:35:30.834Z,1.70
2022-10-01T17:37:58.394Z,2.20
2022-10-01T17:40:25.407Z,1.73
2022-10-01T17:42:52.009Z,2.40
2022-10-01T17:45:18.722Z,0.88
2022-10-01T17:47:47.598Z,1.60
2022-10-01T17:50:15.456Z,1.87
2022-10-01T17:52:42.160Z,0.90
2022-10-01T17:55:09.104Z,0.90
2022-10-01T17:57:35.802Z,4.90
2022-10-01T18:00:03.432Z,3.95
2022-10-01T18:02:43.124Z,0.95
2022-10-01T18:05:14.377Z,0.65
2022-10-01T18:07:42.230Z,0.80
2022-10-01T18:10:12.208Z,1.40
2022-10-01T18:12:39.292Z,9.77
2022-10-01T18:15:06.484Z,5.28
2022-10-01T18:17:33.506Z,6.15
2022-10-01T18:20:00.374Z,3.85
2022-10-01T18:22:28.565Z,4.55
2022-10-01T18:24:55.150Z,4.85
2022-10-01T18:27:22.003Z,4.05
2022-10-01T18:29:49.791Z,2.13
2022-10-01T18:32:25.821Z,1.70
2022-10-01T18:34:58.769Z,3.13
2022-10-01T18:37:25.324Z,2.22
2022-10-01T18:40:17.647Z,2.67
2022-10-01T18:43:08.893Z,6.40
2022-10-01T18:45:57.061Z,3.65
2022-10-01T18:48:42.101Z,1.80
2022-10-01T18:51:11.545Z,1.05
2022-10-01T18:54:03.810Z,1.83
2022-10-01T18:56:36.434Z,2.47
2022-10-01T18:59:36.453Z,0.95
2022-10-01T19:02:20.743Z,7.38
2022-10-01T19:05:00.504Z,2.03
2022-10-01T19:10:37.688Z,0.90
2022-10-01T19:13:25.144Z,0.70
2022-10-01T19:16:29.777Z,0.80
2022-10-01T19:19:17.723Z,0.80
2022-10-01T19:21:51.333Z,4.20
2022-10-01T19:24:54.787Z,1.83
2022-10-01T19:28:10.873Z,5.00
2022-10-01T19:31:03.709Z,3.65
2022-10-01T19:33:34.944Z,0.85
2022-10-01T19:36:05.172Z,0.77
2022-10-01T19:38:43.048Z,0.63
2022-10-01T19:41:23.153Z,0.75
2022-10-01T19:44:09.825Z,0.98
2022-10-01T19:46:41.020Z,2.08
2022-10-01T19:49:08.535Z,2.05
2022-10-01T19:51:37.234Z,0.80
2022-10-01T19:54:10.026Z,0.90
2022-10-01T19:56:38.427Z,1.42
2022-10-01T19:59:12.435Z,1.52
2022-10-01T20:01:46.165Z,0.90
2022-10-01T20:04:21.166Z,0.90
2022-10-01T20:06:58.503Z,1.15
2022-10-01T20:09:44.503Z,1.10
2022-10-01T20:12:38.392Z,2.03
2022-10-01T20:15:17.268Z,1.45
2022-10-01T20:18:03.785Z,5.70
2022-10-01T20:20:40.114Z,2.17
2022-10-01T20:23:38.240Z,3.28
2022-10-01T20:26:20.095Z,1.27
2022-10-01T20:28:56.869Z,1.88
2022-10-01T20:31:30.974Z,0.95
2022-10-01T20:34:20.378Z,1.45
2022-10-01T20:37:03.099Z,1.60
2022-10-01T20:39:34.556Z,1.42
2022-10-01T20:42:01.490Z,1.55
2022-10-01T20:44:33.492Z,1.27
2022-10-01T20:47:11.058Z,2.53
2022-10-01T20:49:47.249Z,1.95
2022-10-01T20:52:48.622Z,3.35
2022-10-01T20:55:36.741Z,1.45
2022-10-01T20:58:09.497Z,1.27
2022-10-01T21:00:42.420Z,1.58
2022-10-01T21:03:19.549Z,1.67
2022-10-01T21:06:23.100Z,2.75
2022-10-01T21:09:17.418Z,2.25
2022-10-01T21:11:59.265Z,1.65
2022-10-01T21:14:35.565Z,1.83
2022-10-01T21:17:30.230Z,7.20
2022-10-01T21:20:27.838Z,2.42
2022-10-01T21:23:37.904Z,2.65
2022-10-01T21:26:35.713Z,3.97
2022-10-01T21:29:08.087Z,1.50
2022-10-01T21:31:45.589Z,2.08
2022-10-01T21:34:20.540Z,2.88
2022-10-01T21:36:49.937Z,4.38
2022-10-01T21:39:33.251Z,3.22
2022-10-01T21:42:15.340Z,3.25
2022-10-01T21:44:41.948Z,2.92
2022-10-01T21:47:16.771Z,8.05
2022-10-01T21:50:08.852Z,2.78
2022-10-01T21:52:46.391Z,3.70
2022-10-01T21:55:50.571Z,5.15
2022-10-01T21:58:29.406Z,4.40
2022-10-01T22:01:08.380Z,4.10
2022-10-01T22:03:45.034Z,3.20
2022-10-01T22:06:32.722Z,3.22
2022-10-01T22:09:18.909Z,3.38
2022-10-01T22:11:53.588Z,2.40
2022-10-01T22:14:21.835Z,5.75
2022-10-01T22:16:58.795Z,3.60
2022-10-01T22:19:40.486Z,2.55
2022-10-01T22:22:14.632Z,2.17
2022-10-01T22:24:47.533Z,6.07
2022-10-01T22:27:39.639Z,6.28
2022-10-01T22:30:17.101Z,9.23
2022-10-01T22:32:50.811Z,4.15
2022-10-01T22:35:28.841Z,2.72
2022-10-01T22:38:05.247Z,2.80
2022-10-01T22:40:55.587Z,4.10
2022-10-01T22:43:22.226Z,4.57
2022-10-01T22:50:24.965Z,5.95
2022-10-01T22:53:12.213Z,5.45
2022-10-01T22:55:54.970Z,4.57
2022-10-01T22:58:39.895Z,5.15
2022-10-01T23:01:21.890Z,3.38
2022-10-01T23:04:18.753Z,3.35
2022-10-01T23:06:55.060Z,2.15
2022-10-01T23:09:41.453Z,2.58
2022-10-01T23:12:17.823Z,1.55
2022-10-01T23:15:01.025Z,1.63
2022-10-01T23:17:27.614Z,3.13
2022-10-01T23:19:57.024Z,1.80
2022-10-01T23:22:35.690Z,1.08
2022-10-01T23:25:05.457Z,0.93
2022-10-01T23:27:50.834Z,1.33
2022-10-01T23:30:24.473Z,1.63
2022-10-01T23:33:16.231Z,1.45
2022-10-01T23:36:18.903Z,2.72
2022-10-01T23:39:09.899Z,1.48
2022-10-01T23:41:48.704Z,3.13
2022-10-01T23:44:28.266Z,2.00
2022-10-01T23:47:02.427Z,1.40
2022-10-01T23:49:36.568Z,1.20
2022-10-01T23:52:40.750Z,1.13
2022-10-01T23:55:41.884Z,0.65
2022-10-01T23:58:14.548Z,0.82
